createdAt,value
2018-05-18T00:00:12.543Z,17.63
2018-05-18T00:02:39.998Z,19.83
2018-05-18T00:05:08.360Z,17.97
2018-05-18T00:07:36.581Z,21.80
2018-05-18T00:10:04.032Z,19.73
2018-05-18T00:12:31.482Z,18.60
2018-05-18T00:14:58.941Z,20.40
2018-05-18T00:17:26.385Z,21.67
2018-05-18T00:19:53.831Z,20.00
2018-05-18T00:22:22.042Z,22.02
2018-05-18T00:24:49.493Z,22.80
2018-05-18T00:27:16.938Z,21.63
2018-05-18T00:29:44.381Z,19.80
2018-05-18T00:32:11.833Z,18.27
2018-05-18T00:34:39.301Z,20.27
2018-05-18T00:37:06.735Z,17.83
2018-05-18T00:39:34.957Z,18.03
2018-05-18T00:42:02.401Z,19.07
2018-05-18T00:44:29.881Z,19.45
2018-05-18T00:46:57.325Z,18.47
2018-05-18T00:49:24.768Z,24.13
2018-05-18T00:51:52.237Z,19.43
2018-05-18T00:54:19.710Z,19.80
2018-05-18T00:56:47.128Z,15.23
2018-05-18T00:59:14.680Z,19.40
2018-05-18T01:01:42.141Z,14.90
2018-05-18T01:04:10.464Z,16.10
2018-05-18T01:06:37.919Z,15.37
2018-05-18T01:09:06.279Z,14.70
2018-05-18T01:11:33.727Z,18.57
2018-05-18T01:14:01.185Z,19.70
2018-05-18T01:16:28.639Z,14.07
2018-05-18T01:19:04.656Z,15.55
2018-05-18T01:21:32.112Z,19.80
2018-05-18T01:23:59.556Z,16.27
2018-05-18T01:26:27.013Z,16.87
2018-05-18T01:28:54.449Z,15.88
2018-05-18T01:31:21.927Z,14.80
2018-05-18T01:33:49.369Z,18.00
2018-05-18T01:36:16.824Z,16.17
2018-05-18T01:38:44.273Z,17.83
2018-05-18T01:41:11.730Z,15.17
2018-05-18T01:43:39.201Z,15.00
2018-05-18T01:46:06.658Z,12.23
2018-05-18T01:48:34.104Z,15.43
2018-05-18T01:51:01.572Z,15.03
2018-05-18T01:53:29.024Z,17.20
2018-05-18T01:55:56.476Z,15.20
2018-05-18T01:58:23.928Z,13.30
2018-05-18T02:00:51.379Z,11.43
2018-05-18T02:03:18.824Z,15.85
2018-05-18T02:05:46.282Z,12.87
2018-05-18T02:08:13.732Z,12.27
2018-05-18T02:10:41.208Z,13.00
2018-05-18T02:13:08.658Z,16.47
2018-05-18T02:15:36.878Z,16.93
2018-05-18T02:18:04.316Z,11.33
2018-05-18T02:20:31.784Z,14.20
2018-05-18T02:22:59.253Z,16.30
2018-05-18T02:25:26.712Z,17.40
2018-05-18T02:27:54.169Z,12.60
2018-05-18T02:30:21.624Z,13.90
2018-05-18T02:32:49.071Z,15.60
2018-05-18T02:35:17.457Z,16.52
2018-05-18T02:37:44.899Z,15.77
2018-05-18T02:40:12.355Z,11.90
2018-05-18T02:42:39.818Z,12.23
2018-05-18T02:45:07.243Z,10.53
2018-05-18T02:47:34.695Z,15.97
2018-05-18T02:50:02.127Z,10.30
2018-05-18T02:52:30.344Z,13.90
2018-05-18T02:54:57.795Z,15.93
2018-05-18T02:57:25.235Z,11.90
2018-05-18T02:59:52.663Z,12.07
2018-05-18T03:02:20.875Z,14.73
2018-05-18T03:04:48.356Z,12.13
2018-05-18T03:07:15.806Z,10.83
2018-05-18T03:09:43.244Z,12.55
2018-05-18T03:12:10.683Z,13.43
2018-05-18T03:14:38.885Z,17.53
2018-05-18T03:17:06.340Z,17.43
2018-05-18T03:19:33.850Z,16.60
2018-05-18T03:22:01.357Z,14.67
2018-05-18T03:24:28.788Z,15.00
2018-05-18T03:26:57.002Z,13.53
2018-05-18T03:29:24.436Z,11.90
2018-05-18T03:31:51.908Z,14.33
2018-05-18T03:34:19.337Z,13.67
2018-05-18T03:36:47.565Z,14.13
2018-05-18T03:39:15.015Z,10.63
2018-05-18T03:41:42.455Z,12.97
2018-05-18T03:44:09.912Z,14.30
2018-05-18T03:46:37.354Z,13.17
2018-05-18T03:49:04.803Z,11.60
2018-05-18T03:51:32.248Z,11.77
2018-05-18T03:54:00.467Z,12.43
2018-05-18T03:56:27.902Z,15.10
2018-05-18T03:58:55.339Z,11.53
2018-05-18T04:01:35.423Z,13.17
2018-05-18T04:04:14.880Z,14.20
2018-05-18T04:06:54.269Z,12.30
2018-05-18T04:09:22.479Z,17.30
2018-05-18T04:11:49.951Z,13.63
2018-05-18T04:14:17.407Z,11.27
2018-05-18T04:16:44.841Z,14.30
2018-05-18T04:19:12.283Z,16.13
2018-05-18T04:21:39.731Z,13.63
2018-05-18T04:24:08.868Z,15.70
2018-05-18T04:26:36.318Z,12.90
2018-05-18T04:29:04.602Z,11.83
2018-05-18T04:31:32.075Z,13.37
2018-05-18T04:33:59.518Z,16.27
2018-05-18T04:36:26.978Z,13.50
2018-05-18T04:38:54.443Z,15.97
2018-05-18T04:41:21.879Z,15.03
2018-05-18T04:43:49.326Z,15.77
2018-05-18T04:46:16.772Z,12.63
2018-05-18T04:48:44.218Z,16.60
2018-05-18T04:51:12.430Z,11.13
2018-05-18T04:53:39.867Z,11.47
2018-05-18T04:56:07.304Z,14.20
2018-05-18T04:58:35.503Z,12.27
2018-05-18T05:01:02.991Z,18.70
2018-05-18T05:03:30.450Z,26.53
2018-05-18T05:05:57.886Z,32.07
2018-05-18T05:08:25.349Z,14.20
2018-05-18T05:10:52.795Z,12.37
2018-05-18T05:13:20.230Z,15.57
2018-05-18T05:15:47.703Z,14.10
2018-05-18T05:18:23.635Z,20.10
2018-05-18T05:20:51.870Z,15.13
2018-05-18T05:23:19.304Z,14.40
2018-05-18T05:25:46.749Z,14.63
2018-05-18T05:28:14.199Z,17.80
2018-05-18T05:30:41.663Z,16.93
2018-05-18T05:33:09.093Z,14.30
2018-05-18T05:35:37.329Z,14.70
2018-05-18T05:38:04.816Z,15.70
2018-05-18T05:40:32.263Z,17.73
2018-05-18T05:42:59.742Z,20.17
2018-05-18T05:45:27.967Z,17.37
2018-05-18T05:47:55.403Z,22.10
2018-05-18T05:50:22.887Z,17.47
2018-05-18T05:52:50.340Z,17.40
2018-05-18T05:55:17.798Z,15.33
2018-05-18T05:57:45.240Z,17.30
2018-05-18T06:00:12.683Z,15.47
2018-05-18T06:02:40.128Z,18.37
2018-05-18T06:05:08.426Z,20.97
2018-05-18T06:07:35.899Z,19.83
2018-05-18T06:10:03.394Z,19.57
2018-05-18T06:12:30.835Z,19.70
2018-05-18T06:14:58.297Z,14.87
2018-05-18T06:17:25.732Z,19.53
2018-05-18T06:19:53.178Z,21.50
2018-05-18T06:22:20.622Z,21.67
2018-05-18T06:24:48.059Z,18.70
2018-05-18T06:27:16.279Z,29.13
2018-05-18T06:29:43.704Z,21.60
2018-05-18T06:32:11.163Z,21.87
2018-05-18T06:34:38.684Z,21.03
2018-05-18T06:37:06.819Z,18.83
2018-05-18T06:39:34.252Z,21.33
2018-05-18T06:42:01.707Z,32.67
2018-05-18T06:44:29.147Z,19.27
2018-05-18T06:46:57.364Z,28.83
2018-05-18T06:49:24.809Z,26.43
2018-05-18T06:51:52.338Z,22.20
2018-05-18T06:54:19.723Z,24.23
2018-05-18T06:56:47.194Z,20.53
2018-05-18T06:59:14.654Z,27.10
2018-05-18T07:01:42.115Z,26.77
2018-05-18T07:04:11.036Z,18.50
2018-05-18T07:06:38.558Z,28.35
2018-05-18T07:09:06.003Z,22.40
2018-05-18T07:11:33.461Z,28.27
2018-05-18T07:14:00.939Z,20.17
2018-05-18T07:16:29.768Z,24.58
2018-05-18T07:18:57.145Z,27.43
2018-05-18T07:21:24.612Z,24.00
2018-05-18T07:23:52.063Z,28.67
2018-05-18T07:26:19.531Z,21.93
2018-05-18T07:28:47.016Z,20.57
2018-05-18T07:31:14.467Z,25.10
2018-05-18T07:33:41.919Z,20.70
2018-05-18T07:36:09.380Z,24.33
2018-05-18T07:38:36.826Z,31.73
2018-05-18T07:41:04.259Z,27.17
2018-05-18T07:43:32.471Z,30.90
2018-05-18T07:45:59.922Z,34.83
2018-05-18T07:48:27.396Z,24.20
2018-05-18T07:50:54.848Z,23.53
2018-05-18T07:53:22.307Z,23.77
2018-05-18T07:55:49.747Z,31.17
2018-05-18T07:58:17.202Z,24.10
2018-05-18T08:00:44.656Z,25.80
2018-05-18T08:03:12.116Z,19.77
2018-05-18T08:05:39.567Z,31.37
2018-05-18T08:08:07.011Z,22.83
2018-05-18T08:10:34.477Z,20.00
2018-05-18T08:13:01.935Z,26.83
2018-05-18T08:15:29.376Z,34.37
2018-05-18T08:17:56.826Z,20.73
2018-05-18T08:20:25.049Z,27.90
2018-05-18T08:22:52.499Z,21.43
2018-05-18T08:25:19.954Z,16.17
2018-05-18T08:27:47.451Z,24.67
2018-05-18T08:30:14.870Z,20.50
2018-05-18T08:32:42.350Z,23.10
2018-05-18T08:35:09.830Z,19.73
2018-05-18T08:37:38.043Z,22.33
2018-05-18T08:40:05.500Z,19.77
2018-05-18T08:42:32.960Z,23.20
2018-05-18T08:45:00.414Z,28.90
2018-05-18T08:47:27.904Z,28.38
2018-05-18T08:49:55.355Z,28.77
2018-05-18T08:52:22.808Z,25.50
2018-05-18T08:54:50.255Z,21.40
2018-05-18T08:57:19.663Z,22.52
2018-05-18T08:59:47.096Z,25.03
2018-05-18T09:02:14.568Z,28.97
2018-05-18T09:04:42.018Z,30.67
2018-05-18T09:07:09.475Z,24.03
2018-05-18T09:09:36.917Z,19.03
2018-05-18T09:12:05.139Z,25.53
2018-05-18T09:14:32.607Z,21.73
2018-05-18T09:17:00.059Z,20.10
2018-05-18T09:19:27.506Z,29.70
2018-05-18T09:21:54.940Z,24.70
2018-05-18T09:24:22.379Z,27.60
2018-05-18T09:26:49.822Z,29.67
2018-05-18T09:29:18.057Z,22.00
2018-05-18T09:31:45.507Z,28.73
2018-05-18T09:34:13.056Z,22.80
2018-05-18T09:36:40.401Z,21.83
2018-05-18T09:39:07.847Z,28.50
2018-05-18T09:41:35.288Z,23.10
2018-05-18T09:44:03.495Z,25.80
2018-05-18T09:46:30.955Z,23.43
2018-05-18T09:48:58.412Z,22.63
2018-05-18T09:51:25.855Z,24.87
2018-05-18T09:53:53.347Z,24.95
2018-05-18T09:56:20.775Z,25.40
2018-05-18T09:58:48.233Z,30.63
2018-05-18T10:01:15.673Z,23.70
2018-05-18T10:03:43.134Z,24.97
2018-05-18T10:06:10.571Z,23.20
2018-05-18T10:08:38.821Z,19.90
2018-05-18T10:11:06.248Z,19.20
2018-05-18T10:13:33.700Z,25.33
2018-05-18T10:16:01.202Z,23.60
2018-05-18T10:18:28.617Z,15.97
2018-05-18T10:20:56.061Z,22.60
2018-05-18T10:23:23.531Z,19.85
2018-05-18T10:25:50.979Z,21.20
2018-05-18T10:28:18.425Z,25.77
2018-05-18T10:33:39.800Z,27.43
2018-05-18T10:36:07.246Z,21.23
2018-05-18T10:38:34.692Z,19.93
2018-05-18T10:41:02.144Z,21.57
2018-05-18T10:43:29.597Z,23.33
2018-05-18T10:45:57.056Z,27.20
2018-05-18T10:48:24.531Z,20.15
2018-05-18T10:50:51.993Z,24.40
2018-05-18T10:53:19.454Z,22.77
2018-05-18T10:55:46.916Z,25.33
2018-05-18T10:58:14.362Z,22.50
2018-05-18T11:00:41.815Z,26.62
2018-05-18T11:03:09.267Z,22.37
2018-05-18T11:05:36.712Z,21.23
2018-05-18T11:08:04.145Z,25.73
2018-05-18T11:10:32.375Z,22.52
2018-05-18T11:12:59.817Z,21.07
2018-05-18T11:15:27.267Z,23.73
2018-05-18T11:17:54.715Z,22.97
2018-05-18T11:20:22.167Z,23.43
2018-05-18T11:22:49.646Z,24.80
2018-05-18T11:25:17.103Z,34.00
2018-05-18T11:27:44.551Z,16.80
2018-05-18T11:30:12.010Z,24.73
2018-05-18T11:32:39.460Z,19.05
2018-05-18T11:35:06.928Z,34.03
2018-05-18T11:37:34.395Z,20.57
2018-05-18T11:40:02.600Z,16.00
2018-05-18T11:42:30.039Z,15.40
2018-05-18T11:44:57.491Z,21.90
2018-05-18T11:47:24.944Z,24.93
2018-05-18T11:49:52.399Z,19.23
2018-05-18T11:52:19.843Z,21.37
2018-05-18T11:54:47.339Z,21.20
2018-05-18T11:57:14.879Z,21.30
2018-05-18T11:59:42.336Z,20.70
2018-05-18T12:02:09.899Z,23.70
2018-05-18T12:04:37.347Z,20.03
2018-05-18T12:07:05.727Z,17.27
2018-05-18T12:09:33.159Z,19.00
2018-05-18T12:12:00.607Z,16.90
2018-05-18T12:14:28.869Z,16.60
2018-05-18T12:16:57.084Z,22.43
2018-05-18T12:19:24.530Z,13.10
2018-05-18T12:21:51.979Z,18.97
2018-05-18T12:24:19.416Z,16.27
2018-05-18T12:26:47.644Z,19.07
2018-05-18T12:29:15.078Z,17.63
2018-05-18T12:31:42.537Z,20.50
2018-05-18T12:34:09.975Z,23.57
2018-05-18T12:36:37.423Z,17.90
2018-05-18T12:39:06.640Z,18.92
2018-05-18T12:41:34.084Z,18.80
2018-05-18T12:44:01.559Z,17.27
2018-05-18T12:46:29.750Z,21.57
2018-05-18T12:49:00.627Z,16.27
2018-05-18T12:51:28.065Z,15.32
2018-05-18T12:53:55.535Z,16.70
2018-05-18T12:56:23.023Z,16.43
2018-05-18T12:58:51.235Z,21.83
2018-05-18T13:01:18.671Z,17.90
2018-05-18T13:03:46.120Z,21.43
2018-05-18T13:06:13.550Z,12.83
2018-05-18T13:08:41.768Z,17.27
2018-05-18T13:11:09.224Z,19.13
2018-05-18T13:13:36.676Z,15.98
2018-05-18T13:16:04.129Z,14.07
2018-05-18T13:18:31.576Z,15.43
2018-05-18T13:20:59.037Z,27.70
2018-05-18T13:23:27.438Z,15.77
2018-05-18T13:25:54.868Z,18.67
2018-05-18T13:28:22.310Z,14.80
2018-05-18T13:30:50.527Z,21.93
2018-05-18T13:33:17.978Z,22.45
2018-05-18T13:35:45.467Z,19.87
2018-05-18T13:38:12.918Z,17.60
2018-05-18T13:40:40.358Z,14.60
2018-05-18T13:43:08.559Z,14.97
2018-05-18T13:45:37.615Z,21.10
2018-05-18T13:48:05.055Z,18.13
2018-05-18T13:50:32.496Z,15.43
2018-05-18T13:53:00.746Z,19.13
2018-05-18T13:55:28.201Z,16.40
2018-05-18T13:57:55.646Z,15.80
2018-05-18T14:00:23.088Z,13.63
2018-05-18T14:02:50.611Z,12.87
2018-05-18T14:05:18.417Z,21.50
2018-05-18T14:07:46.784Z,18.60
2018-05-18T14:10:14.257Z,15.70
2018-05-18T14:12:41.725Z,14.00
2018-05-18T14:15:09.280Z,17.60
2018-05-18T14:17:36.747Z,14.43
2018-05-18T14:20:04.184Z,20.23
2018-05-18T14:22:31.617Z,12.23
2018-05-18T14:24:59.064Z,18.97
2018-05-18T14:27:27.272Z,12.17
2018-05-18T14:29:54.765Z,17.17
2018-05-18T14:32:22.205Z,19.77
2018-05-18T14:34:49.666Z,19.60
2018-05-18T14:37:17.123Z,14.07
2018-05-18T14:39:44.564Z,16.40
2018-05-18T14:42:11.995Z,15.80
2018-05-18T14:44:43.240Z,16.30
2018-05-18T14:47:10.687Z,17.27
2018-05-18T14:49:38.900Z,13.17
2018-05-18T14:52:07.791Z,14.90
2018-05-18T14:54:35.252Z,15.03
2018-05-18T14:57:02.691Z,16.90
2018-05-18T14:59:30.230Z,20.03
2018-05-18T15:01:58.432Z,16.63
2018-05-18T15:04:25.911Z,21.50
2018-05-18T15:06:53.367Z,20.00
2018-05-18T15:09:20.828Z,13.77
2018-05-18T15:11:48.360Z,16.93
2018-05-18T15:14:15.711Z,17.87
2018-05-18T15:16:43.160Z,14.70
2018-05-18T15:19:10.615Z,15.50
2018-05-18T15:21:38.063Z,17.53
2018-05-18T15:24:05.503Z,15.43
2018-05-18T15:26:33.743Z,18.17
2018-05-18T15:29:01.180Z,13.47
2018-05-18T15:31:30.418Z,12.97
2018-05-18T15:33:57.864Z,16.70
2018-05-18T15:36:25.311Z,18.63
2018-05-18T15:38:52.752Z,16.73
2018-05-18T15:41:20.192Z,15.03
2018-05-18T15:43:47.627Z,18.40
2018-05-18T15:46:15.490Z,14.60
2018-05-18T15:48:43.699Z,15.83
2018-05-18T15:51:11.154Z,18.03
2018-05-18T15:53:38.607Z,20.23
2018-05-18T15:56:06.048Z,13.05
2018-05-18T15:58:33.486Z,19.47
2018-05-18T16:01:01.717Z,17.10
2018-05-18T16:03:29.162Z,22.13
2018-05-18T16:05:57.576Z,17.33
2018-05-18T16:08:25.031Z,18.17
2018-05-18T16:10:52.479Z,18.70
2018-05-18T16:13:19.929Z,20.60
2018-05-18T16:15:47.359Z,15.57
2018-05-18T16:18:14.805Z,19.57
2018-05-18T16:20:42.235Z,23.00
2018-05-18T16:23:09.706Z,17.07
2018-05-18T16:25:37.909Z,17.27
2018-05-18T16:28:05.404Z,22.47
2018-05-18T16:30:32.799Z,20.73
2018-05-18T16:33:01.041Z,17.33
2018-05-18T16:35:28.479Z,21.47
2018-05-18T16:37:55.931Z,26.03
2018-05-18T16:40:23.374Z,24.90
2018-05-18T16:42:50.829Z,17.33
2018-05-18T16:45:18.265Z,17.83
2018-05-18T16:47:46.475Z,21.60
2018-05-18T16:50:13.913Z,16.37
2018-05-18T16:52:41.397Z,19.57
2018-05-18T16:55:08.801Z,24.05
2018-05-18T16:57:37.024Z,18.17
2018-05-18T17:00:04.468Z,18.73
2018-05-18T17:02:31.916Z,17.87
2018-05-18T17:05:00.128Z,16.23
2018-05-18T17:07:27.584Z,19.80
2018-05-18T17:09:55.017Z,20.70
2018-05-18T17:12:22.565Z,21.03
2018-05-18T17:14:49.972Z,18.13
2018-05-18T17:17:17.502Z,19.40
2018-05-18T17:19:45.004Z,18.23
2018-05-18T17:22:12.412Z,20.97
2018-05-18T17:24:39.863Z,18.30
2018-05-18T17:27:07.322Z,23.37
2018-05-18T17:29:34.762Z,15.98
2018-05-18T17:32:02.243Z,20.33
2018-05-18T17:34:30.435Z,18.83
2018-05-18T17:36:57.871Z,20.03
2018-05-18T17:39:25.374Z,18.83
2018-05-18T17:41:52.828Z,19.87
2018-05-18T17:44:20.339Z,18.73
2018-05-18T17:46:47.771Z,19.23
2018-05-18T17:49:15.238Z,18.13
2018-05-18T17:51:42.663Z,15.30
2018-05-18T17:54:10.885Z,16.35
2018-05-18T17:56:39.108Z,22.83
2018-05-18T17:59:06.547Z,17.17
2018-05-18T18:01:34.052Z,16.63
2018-05-18T18:04:01.443Z,18.43
2018-05-18T18:06:28.903Z,13.93
2018-05-18T18:08:56.337Z,16.33
2018-05-18T18:11:23.788Z,19.03
2018-05-18T18:13:51.218Z,17.57
2018-05-18T18:16:19.419Z,13.77
2018-05-18T18:18:46.860Z,13.00
2018-05-18T18:21:15.069Z,14.63
2018-05-18T18:23:42.515Z,16.03
2018-05-18T18:26:09.962Z,18.10
2018-05-18T18:28:37.421Z,13.57
2018-05-18T18:31:04.863Z,13.10
2018-05-18T18:33:33.085Z,20.13
2018-05-18T18:36:00.535Z,14.97
2018-05-18T18:38:27.987Z,13.53
2018-05-18T18:40:55.432Z,15.97
2018-05-18T18:43:22.887Z,14.53
2018-05-18T18:45:50.323Z,16.70
2018-05-18T18:48:17.784Z,12.83
2018-05-18T18:50:45.224Z,12.50
2018-05-18T18:53:13.449Z,12.00
2018-05-18T18:55:40.932Z,13.67
2018-05-18T18:58:08.383Z,11.75
2018-05-18T19:00:35.830Z,15.10
2018-05-18T19:03:03.281Z,13.73
2018-05-18T19:05:30.729Z,13.80
2018-05-18T19:07:58.218Z,11.00
2018-05-18T19:10:25.614Z,16.00
2018-05-18T19:12:54.738Z,11.83
2018-05-18T19:15:22.181Z,15.23
2018-05-18T19:17:49.619Z,12.93
2018-05-18T19:20:17.827Z,14.33
2018-05-18T19:22:45.285Z,19.43
2018-05-18T19:25:12.741Z,13.13
2018-05-18T19:27:40.183Z,13.17
2018-05-18T19:30:07.684Z,15.57
2018-05-18T19:32:35.159Z,20.10
2018-05-18T19:35:02.651Z,16.83
2018-05-18T19:37:30.838Z,17.87
2018-05-18T19:39:58.290Z,14.00
2018-05-18T19:42:25.749Z,20.30
2018-05-18T19:44:53.208Z,15.80
2018-05-18T19:47:20.650Z,12.13
2018-05-18T19:49:48.951Z,13.17
2018-05-18T19:52:16.300Z,19.40
2018-05-18T19:54:43.758Z,15.25
2018-05-18T19:57:11.204Z,14.00
2018-05-18T19:59:38.672Z,14.00
2018-05-18T20:02:06.299Z,18.60
2018-05-18T20:04:35.440Z,15.10
2018-05-18T20:07:02.883Z,15.20
2018-05-18T20:09:30.307Z,13.43
2018-05-18T20:11:58.556Z,13.80
2018-05-18T20:14:25.986Z,17.20
2018-05-18T20:16:54.199Z,17.52
2018-05-18T20:19:21.631Z,15.67
2018-05-18T20:21:49.083Z,17.33
2018-05-18T20:24:16.528Z,21.20
2018-05-18T20:26:43.966Z,19.63
2018-05-18T20:29:11.432Z,15.97
2018-05-18T20:31:38.880Z,27.57
2018-05-18T20:34:06.334Z,12.70
2018-05-18T20:36:34.536Z,16.40
2018-05-18T20:39:01.976Z,14.52
2018-05-18T20:41:29.438Z,13.97
2018-05-18T20:43:56.880Z,19.70
2018-05-18T20:46:25.099Z,15.90
2018-05-18T20:48:52.543Z,21.10
2018-05-18T20:51:19.986Z,24.10
2018-05-18T20:53:47.431Z,18.00
2018-05-18T20:56:14.888Z,23.70
2018-05-18T20:58:42.319Z,20.33
2018-05-18T21:01:10.547Z,26.02
2018-05-18T21:03:38.054Z,20.67
2018-05-18T21:06:05.490Z,19.73
2018-05-18T21:08:32.932Z,21.30
2018-05-18T21:11:00.382Z,23.60
2018-05-18T21:13:27.831Z,18.43
2018-05-18T21:15:55.283Z,21.80
2018-05-18T21:18:22.758Z,22.63
2018-05-18T21:20:50.187Z,22.15
2018-05-18T21:23:17.639Z,25.60
2018-05-18T21:25:45.088Z,24.97
2018-05-18T21:28:12.566Z,21.07
2018-05-18T21:30:40.021Z,22.67
2018-05-18T21:33:07.467Z,23.50
2018-05-18T21:35:34.923Z,21.40
2018-05-18T21:38:02.370Z,21.20
2018-05-18T21:40:29.819Z,21.80
2018-05-18T21:42:58.036Z,25.17
2018-05-18T21:45:25.471Z,22.03
2018-05-18T21:47:52.931Z,18.60
2018-05-18T21:50:20.384Z,25.03
2018-05-18T21:52:47.835Z,26.47
2018-05-18T21:55:16.047Z,26.17
2018-05-18T21:57:43.488Z,24.63
2018-05-18T22:00:10.935Z,24.57
2018-05-18T22:02:38.374Z,21.17
2018-05-18T22:05:06.682Z,29.10
2018-05-18T22:07:34.135Z,24.43
2018-05-18T22:10:01.575Z,24.83
2018-05-18T22:12:29.041Z,23.73
2018-05-18T22:14:56.495Z,21.57
2018-05-18T22:17:23.939Z,22.23
2018-05-18T22:19:52.144Z,21.37
2018-05-18T22:22:19.596Z,22.50
2018-05-18T22:24:47.027Z,23.03
2018-05-18T22:27:15.253Z,26.63
2018-05-18T22:29:44.019Z,20.80
2018-05-18T22:32:11.485Z,24.90
2018-05-18T22:34:38.924Z,27.40
2018-05-18T22:37:07.251Z,26.97
2018-05-18T22:39:34.712Z,19.13
2018-05-18T22:42:02.167Z,23.20
2018-05-18T22:44:30.382Z,24.60
2018-05-18T22:46:57.875Z,22.23
2018-05-18T22:49:25.344Z,24.07
2018-05-18T22:51:52.768Z,23.50
2018-05-18T22:54:20.216Z,20.67
2018-05-18T22:56:47.651Z,24.27
2018-05-18T22:59:15.885Z,23.07
2018-05-18T23:01:43.337Z,20.97
2018-05-18T23:04:11.555Z,18.15
2018-05-18T23:06:39.799Z,20.40
2018-05-18T23:09:07.251Z,19.33
2018-05-18T23:11:34.747Z,23.77
2018-05-18T23:14:02.174Z,22.70
2018-05-18T23:16:29.603Z,22.43
2018-05-18T23:18:57.054Z,22.77
2018-05-18T23:21:24.492Z,20.60
2018-05-18T23:23:51.962Z,28.27
2018-05-18T23:26:19.410Z,24.20
2018-05-18T23:28:46.847Z,21.77
2018-05-18T23:31:15.073Z,26.43
2018-05-18T23:33:42.531Z,24.30
2018-05-18T23:36:09.976Z,20.97
2018-05-18T23:38:37.434Z,22.63
2018-05-18T23:41:04.874Z,23.93
2018-05-18T23:43:32.319Z,20.60
2018-05-18T23:46:00.524Z,19.03
2018-05-18T23:48:28.012Z,21.62
2018-05-18T23:50:55.450Z,21.07
2018-05-18T23:53:22.925Z,20.43
2018-05-18T23:55:50.367Z,22.47
2018-05-18T23:58:17.823Z,27.30
